Latest Weather Observations for Goulburn Airport

IDN60901

Issued at 8:25 pm EDT Sunday 26 October 2014 (issued every 10 minutes, with the page automatically refreshed every 10 minutes)

About weather observations | Map of Canberra area stations | Latest observations for Canberra area | Other Formats
Station Details ID: 070330 Name: GOULBURN AIRPORT AWS Lat: -34.81 Lon: 149.73 Height: 640.0 m
Data from the previous 72 hours. | See also: Recent months at Goulburn Airport
Date/Time
EDT
Tmp

°C
App
Tmp
°C
Dew
Point
°C
Rel
Hum
%
Delta-T

°C
Wind Press
QNH
hPa
Press
MSL
hPa
Rain
since
9 am
mm
Dir
 
Spd
km/h
Gust
km/h
Spd
kts
Gust
kts
26/08:00pm 16.1 14.0 8.3 60 4.1 SW 9 13 5 7 1013.6 1012.8 0.2
26/07:30pm 19.1 16.8 7.5 47 6.1 W 9 11 5 6 1013.0 1012.3 0.2
26/07:00pm 20.7 17.4 8.0 44 6.8 W 15 17 8 9 1012.7 1011.9 0.2
26/06:30pm 24.3 20.4 7.0 33 9.3 W 17 22 9 12 1012.5 1011.7 0.2
26/06:00pm 24.5 19.4 5.8 30 9.9 W 22 30 12 16 1012.1 1011.3 0.2
26/05:30pm 25.3 19.7 5.5 28 10.4 W 24 33 13 18 1012.1 1011.3 0.2
26/05:00pm 26.5 19.3 6.0 27 11.0 W 33 43 18 23 1011.7 1010.9 0.2
26/04:30pm 27.0 19.2 4.7 24 11.7 W 35 44 19 24 1011.4 1010.7 0.2
26/04:00pm 26.7 20.0 7.2 29 10.7 W 32 41 17 22 1011.3 1010.5 0.2
26/03:43pm 26.8 19.8 6.2 27 11.1 WNW 32 50 17 27 1011.3 1010.5 0.2
26/03:30pm 26.9 20.9 8.8 32 10.2 W 30 41 16 22 1011.4 1010.7 0.2
26/03:00pm 26.7 19.7 6.7 28 10.8 W 33 41 18 22 1011.6 1010.8 0.2
26/02:30pm 26.6 20.3 7.6 30 10.4 W 30 43 16 23 1011.7 1010.9 0.2
26/02:00pm 26.4 18.4 5.9 27 10.9 W 37 48 20 26 1012.3 1011.5 0.2
26/01:30pm 25.8 17.2 6.4 29 10.4 W 41 54 22 29 1012.5 1011.7 0.2
26/01:00pm 26.0 19.2 7.6 31 10.1 WNW 33 43 18 23 1012.4 1011.6 0.2
26/12:32pm 26.0 18.9 6.6 29 10.4 W 33 52 18 28 1012.7 1011.9 0.2
26/12:30pm 26.0 19.1 8.9 34 9.6 W 35 52 19 28 1012.7 1011.9 0.2
26/12:29pm 26.3 19.2 9.6 35 9.5 W 37 56 20 30 1012.7 1011.9 0.2
26/12:00pm 25.7 18.0 8.7 34 9.5 W 39 50 21 27 1012.7 1011.9 0.2
26/11:30am 25.7 19.6 11.8 42 8.2 WNW 35 48 19 26 1013.1 1012.4 0.2
26/11:00am 24.5 17.5 10.0 40 8.2 W 37 48 20 26 1012.9 1012.2 0.2
26/10:30am 24.4 17.6 9.2 38 8.5 W 35 48 19 26 1012.9 1012.2 0.0
26/10:00am 23.7 18.8 11.4 46 7.1 W 28 43 15 23 1012.8 1012.1 0.0
26/09:30am 22.8 18.7 11.5 49 6.5 W 24 35 13 19 1012.7 1011.9 0.0
26/09:00am 21.7 18.5 12.0 54 5.6 WNW 20 30 11 16 1012.7 1011.9 1.0
26/08:30am 20.2 18.4 12.2 60 4.6 NNW 13 20 7 11 1012.6 1011.8 1.0
26/08:00am 16.6 16.3 14.4 87 1.3 N 9 11 5 6 1012.5 1011.7 1.0
26/07:30am 12.5 11.1 12.2 98 0.2 N 11 13 6 7 1012.3 1011.5 1.0
26/07:04am 10.7 10.1 10.4 98 0.2 N 4 11 2 6 1012.4 1011.6 1.0
26/07:00am 10.5 10.6 10.2 98 0.2 CALM 0 6 0 3 1012.4 1011.6 1.0
26/06:30am 9.6 9.5 9.3 98 0.2 CALM 0 6 0 3 1012.5 1011.7 1.0
26/06:05am 10.0 8.6 9.7 98 0.2 E 7 7 4 4 1012.3 1011.5 1.0
26/06:00am 10.1 9.0 9.8 98 0.2 E 6 7 3 4 1012.3 1011.5 1.0
26/05:30am 10.2 8.8 9.7 97 0.3 SSW 7 7 4 4 1012.2 1011.4 1.0
26/05:02am 10.4 9.7 9.9 97 0.3 SSW 4 7 2 4 1012.1 1011.3 1.0
26/05:00am 10.5 10.2 10.0 97 0.3 S 2 7 1 4 1012.1 1011.3 1.0
26/04:30am 11.2 10.3 10.7 97 0.3 SE 6 7 3 4 1012.0 1011.2 1.0
26/04:18am 11.2 10.1 10.7 97 0.3 SSE 7 9 4 5 1012.1 1011.3 1.0
26/04:00am 10.8 10.9 10.3 97 0.3 CALM 0 0 0 0 1012.2 1011.4 1.0
26/03:30am 11.8 12.2 11.3 97 0.3 CALM 0 0 0 0 1012.5 1011.7 1.0
26/03:00am 11.8 11.5 11.3 97 0.3 S 4 7 2 4 1012.9 1012.2 1.0
26/02:30am 12.3 11.5 11.8 97 0.3 S 7 9 4 5 1013.5 1012.7 1.0
26/02:00am 12.6 11.5 12.1 97 0.3 SSE 9 11 5 6 1013.8 1013.0 1.0
26/01:51am 12.4 12.2 11.8 96 0.3 S 4 9 2 5 1014.0 1013.2 1.0
26/01:30am 11.9 10.9 11.1 95 0.4 SSW 7 9 4 5 1014.3 1013.6 1.0
26/01:00am 12.5 11.7 11.6 94 0.5 SW 7 11 4 6 1014.6 1013.9 1.0
26/12:30am 14.4 14.6 13.1 92 0.7 NE 4 9 2 5 1015.1 1014.3 1.0
26/12:00am 15.8 15.3 14.8 94 0.6 NE 11 17 6 9 1015.8 1015.1 1.0
 
Date/Time
EDT
Tmp

°C
App
Tmp
°C
Dew
Point
°C
Rel
Hum
%
Delta-T

°C
Wind Press
QNH
hPa
Press
MSL
hPa
Rain
since
9 am
mm
Dir
 
Spd
km/h
Gust
km/h
Spd
kts
Gust
kts
25/11:30pm 15.8 16.1 14.5 92 0.8 E 6 9 3 5 1015.8 1015.1 1.0
25/11:00pm 16.1 16.3 14.6 91 0.9 NNE 7 13 4 7 1016.0 1015.3 1.0
25/10:30pm 16.5 16.4 15.0 91 0.9 NNE 9 13 5 7 1016.3 1015.6 1.0
25/10:00pm 17.5 16.2 15.7 89 1.1 N 17 26 9 14 1017.2 1016.5 1.0
25/09:30pm 17.3 16.6 15.3 88 1.2 SE 13 22 7 12 1017.9 1017.2 0.0
25/09:00pm 17.4 17.2 14.7 84 1.6 NNE 9 17 5 9 1016.7 1015.9 0.0
25/08:30pm 17.4 16.1 14.7 84 1.6 ENE 15 19 8 10 1016.4 1015.7 0.0
25/08:00pm 19.2 19.6 14.7 75 2.7 E 6 9 3 5 1015.9 1015.2 0.0
25/07:30pm 19.9 16.9 14.9 73 3.0 SE 24 37 13 20 1015.3 1014.5 0.0
25/07:00pm 21.3 21.3 13.5 61 4.6 E 6 9 3 5 1014.9 1014.1 0.0
25/06:30pm 24.4 23.5 12.7 48 6.9 NW 9 11 5 6 1014.7 1014.0 0.0
25/06:00pm 25.1 24.8 14.3 51 6.6 NNW 9 11 5 6 1014.9 1014.1 0.0
25/05:30pm 24.4 23.1 12.4 47 7.1 WNW 11 13 6 7 1015.4 1014.6 0.0
25/05:00pm 26.0 22.0 10.6 38 8.9 W 22 32 12 17 1015.9 1015.2 0.0
25/04:30pm 27.4 24.2 11.4 37 9.4 W 19 24 10 13 1015.7 1015.0 0.0
25/04:00pm 26.4 22.3 10.1 36 9.3 W 22 28 12 15 1015.7 1015.0 0.0
25/03:30pm 27.9 23.9 9.2 31 10.6 WNW 20 30 11 16 1015.6 1014.9 0.0
25/03:00pm 28.1 24.9 9.9 32 10.5 W 17 28 9 15 1015.8 1015.1 0.0
25/02:30pm 28.1 24.3 11.2 35 9.9 W 22 30 12 16 1016.2 1015.5 0.0
25/02:00pm 27.5 23.8 9.3 32 10.3 W 19 30 10 16 1016.8 1016.0 0.0
25/01:30pm 26.5 22.8 9.4 34 9.7 W 19 28 10 15 1017.1 1016.4 0.0
25/01:00pm 25.6 21.8 9.8 37 9.0 W 20 28 11 15 1017.2 1016.5 0.0
25/12:30pm 27.3 23.2 11.3 37 9.4 W 24 35 13 19 1017.4 1016.7 0.0
25/12:00pm 26.6 22.7 7.1 29 10.6 W 17 24 9 13 1017.8 1017.1 0.0
25/11:30am 25.9 23.3 9.3 35 9.4 WNW 13 20 7 11 1018.1 1017.4 0.0
25/11:00am 25.0 22.6 8.5 35 9.1 NNW 11 17 6 9 1018.4 1017.7 0.0
25/10:30am 24.4 23.4 11.0 43 7.7 NNW 7 11 4 6 1018.6 1017.9 0.0
25/10:00am 22.4 21.1 9.9 45 7.0 NNW 7 11 4 6 1018.8 1018.1 0.0
25/09:30am 21.6 20.3 10.1 48 6.4 WNW 7 9 4 5 1018.7 1018.0 0.0
25/09:00am 20.2 19.1 10.0 52 5.6 NW 6 9 3 5 1018.7 1018.0 0.2
25/08:30am 18.8 17.4 10.9 60 4.4 N 9 11 5 6 1018.3 1017.6 0.2
25/08:00am 16.2 15.4 11.8 75 2.5 N 7 9 4 5 1018.5 1017.8 0.2
25/07:30am 13.9 12.9 10.3 79 1.9 N 6 7 3 4 1018.3 1017.6 0.2
25/07:00am 11.1 10.9 9.0 87 1.1 CALM 0 0 0 0 1018.3 1017.6 0.2
25/06:30am 10.5 9.0 8.6 88 1.0 NNW 6 9 3 5 1017.8 1017.1 0.2
25/06:00am 9.4 7.6 7.3 87 1.0 N 6 9 3 5 1017.3 1016.6 0.2
25/05:30am 9.4 7.4 7.0 85 1.2 ENE 7 7 4 4 1017.0 1016.3 0.2
25/05:00am 11.9 9.1 8.7 81 1.6 WNW 13 15 7 8 1016.7 1015.9 0.2
25/04:30am 9.1 7.1 7.2 88 0.9 W 7 11 4 6 1016.4 1015.7 0.2
25/04:00am 9.0 7.2 7.1 88 0.9 SE 6 9 3 5 1015.8 1015.1 0.2
25/03:30am 11.3 9.8 8.3 82 1.5 N 6 9 3 5 1015.4 1014.6 0.2
25/03:00am 11.5 9.0 8.2 80 1.7 W 11 17 6 9 1015.3 1014.5 0.2
25/02:30am 13.1 13.0 9.4 78 1.9 CALM 0 0 0 0 1015.1 1014.3 0.2
25/02:00am 12.5 12.1 9.9 84 1.4 N 2 6 1 3 1015.0 1014.2 0.2
25/01:30am 12.9 11.3 10.3 84 1.4 NNW 9 11 5 6 1015.2 1014.4 0.2
25/01:00am 12.8 11.8 10.2 84 1.4 NNE 6 7 3 4 1015.5 1014.8 0.2
25/12:30am 14.7 15.0 12.2 85 1.4 W 2 9 1 5 1015.7 1015.0 0.2
25/12:00am 15.2 14.8 13.1 87 1.2 ESE 7 9 4 5 1015.6 1014.9 0.2
 
Date/Time
EDT
Tmp

°C
App
Tmp
°C
Dew
Point
°C
Rel
Hum
%
Delta-T

°C
Wind Press
QNH
hPa
Press
MSL
hPa
Rain
since
9 am
mm
Dir
 
Spd
km/h
Gust
km/h
Spd
kts
Gust
kts
24/11:30pm 17.0 16.3 14.3 84 1.6 NNW 11 13 6 7 1015.4 1014.6 0.2
24/11:00pm 17.8 17.2 14.7 82 1.8 NNW 11 13 6 7 1015.5 1014.8 0.2
24/10:30pm 18.7 18.9 14.8 78 2.3 N 7 11 4 6 1015.6 1014.9 0.2
24/10:00pm 18.5 18.1 12.5 68 3.4 N 6 9 3 5 1015.6 1014.9 0.2
24/09:30pm 19.3 18.9 12.3 64 4.0 NNE 6 7 3 4 1015.5 1014.8 0.2
24/09:00pm 19.5 18.0 12.0 62 4.3 SE 11 15 6 8 1015.5 1014.8 0.2
24/08:30pm 18.9 17.9 13.3 70 3.3 E 11 13 6 7 1015.4 1014.6 0.2
24/08:00pm 20.7 17.4 12.7 60 4.7 SW 22 33 12 18 1015.0 1014.2 0.2
24/07:52pm 21.5 17.8 14.9 66 4.0 W 28 39 15 21 1015.2 1014.4 0.2
24/07:30pm 21.2 22.3 15.5 70 3.5 WSW 4 9 2 5 1014.2 1013.5 0.2
24/07:00pm 21.9 23.1 16.0 69 3.7 ENE 4 6 2 3 1013.8 1013.0 0.2
24/06:30pm 23.7 23.9 14.7 57 5.5 NNW 7 9 4 5 1013.5 1012.7 0.2
24/06:00pm 24.6 23.7 13.8 51 6.5 NNW 11 15 6 8 1013.5 1012.7 0.2
24/05:30pm 25.6 24.0 12.8 45 7.6 NNW 13 17 7 9 1013.5 1012.7 0.2
24/05:00pm 26.3 24.7 13.8 46 7.6 NNW 15 20 8 11 1013.7 1012.9 0.2
24/04:30pm 27.2 25.2 13.9 44 8.1 NNW 17 24 9 13 1013.9 1013.1 0.2
24/04:00pm 27.2 23.7 13.5 42 8.3 NNW 24 32 13 17 1014.3 1013.6 0.2
24/03:30pm 27.1 23.6 13.4 42 8.3 NNW 24 32 13 17 1014.7 1014.0 0.2
24/03:00pm 27.3 22.8 12.5 40 8.8 NW 28 41 15 22 1015.2 1014.4 0.2
24/02:30pm 27.3 22.0 12.5 40 8.8 NW 32 50 17 27 1015.4 1014.6 0.2
24/02:23pm 27.4 22.4 11.0 36 9.6 NW 28 50 15 27 1015.5 1014.8 0.2
24/02:00pm 27.0 21.2 10.7 36 9.4 NW 32 44 17 24 1015.8 1015.1 0.2
24/01:30pm 27.3 23.1 13.6 43 8.3 N 28 37 15 20 1016.2 1015.5 0.2
24/01:00pm 26.4 21.4 12.1 41 8.5 N 30 44 16 24 1016.6 1015.8 0.2
24/12:30pm 26.0 21.1 12.5 43 8.0 N 30 43 16 23 1017.1 1016.4 0.2
24/12:00pm 25.8 20.4 10.8 39 8.7 NNW 30 41 16 22 1017.5 1016.8 0.2
24/11:30am 24.6 22.0 13.8 51 6.5 NNE 20 28 11 15 1018.3 1017.6 0.2
24/11:00am 24.1 21.5 13.9 53 6.1 NNE 20 28 11 15 1018.8 1018.1 0.2
24/10:30am 23.4 20.9 14.1 56 5.6 N 20 28 11 15 1019.3 1018.6 0.2
24/10:00am 22.3 20.7 13.9 59 5.0 N 15 24 8 13 1019.9 1019.2 0.0
24/09:30am 19.8 19.6 13.7 68 3.6 N 7 9 4 5 1020.0 1019.3 0.0
24/09:00am 17.5 16.5 13.4 77 2.4 NE 11 13 6 7 1020.1 1019.4 3.8
24/08:30am 15.3 15.5 13.0 86 1.3 NE 4 9 2 5 1020.5 1019.8 3.8
24/08:00am 14.5 12.8 12.4 87 1.2 ENE 13 22 7 12 1020.4 1019.7 3.8
24/07:30am 14.5 13.8 13.2 92 0.7 WSW 9 13 5 7 1021.2 1020.6 3.6
24/07:00am 13.5 13.0 11.9 90 0.9 N 6 11 3 6 1020.4 1019.7 3.6
24/06:30am 13.2 12.3 11.4 89 1.0 N 7 9 4 5 1020.5 1019.8 3.6
24/06:00am 13.9 12.0 11.8 87 1.2 N 13 19 7 10 1020.3 1019.6 3.6
24/05:30am 13.1 10.6 11.2 88 1.0 NNE 15 20 8 11 1020.4 1019.7 3.6
24/05:00am 14.2 11.6 12.1 87 1.2 ENE 17 24 9 13 1020.1 1019.4 3.6
24/04:30am 13.8 12.6 11.7 87 1.2 WSW 9 15 5 8 1021.7 1021.0 3.2
24/04:00am 13.8 12.0 12.0 89 1.0 SSE 13 15 7 8 1021.1 1020.5 3.2
24/03:30am 13.7 12.2 11.9 89 1.0 SSE 11 15 6 8 1021.0 1020.4 3.2
24/03:00am 13.3 11.4 11.9 91 0.8 SSE 13 17 7 9 1021.1 1020.5 3.2
24/02:30am 13.3 11.8 11.9 91 0.8 SSE 11 13 6 7 1021.4 1020.8 3.2
24/02:00am 14.2 13.6 11.7 85 1.4 NE 6 13 3 7 1021.7 1021.0 3.2
24/01:30am 14.4 12.2 12.1 86 1.3 N 15 20 8 11 1021.7 1021.0 3.2
24/01:00am 13.7 12.4 11.2 85 1.4 N 9 13 5 7 1021.3 1020.7 3.2
24/12:30am 13.8 11.9 10.6 81 1.7 WNW 11 19 6 10 1021.1 1020.5 3.2
24/12:00am 15.5 13.2 11.9 79 2.0 E 15 22 8 12 1021.2 1020.6 3.2
 
Date/Time
EDT
Tmp

°C
App
Tmp
°C
Dew
Point
°C
Rel
Hum
%
Delta-T

°C
Wind Press
QNH
hPa
Press
MSL
hPa
Rain
since
9 am
mm
Dir
 
Spd
km/h
Gust
km/h
Spd
kts
Gust
kts
23/11:30pm 16.2 13.9 12.9 81 1.9 SE 17 22 9 12 1022.5 1021.9 3.2
23/11:00pm 15.8 14.4 13.5 86 1.3 SE 13 17 7 9 1022.4 1021.8 3.2
23/10:30pm 15.6 14.1 13.1 85 1.4 SE 13 17 7 9 1021.9 1021.2 3.2
23/10:00pm 16.3 13.7 13.8 85 1.5 SE 20 26 11 14 1022.0 1021.3 3.2
23/09:30pm 16.0 17.0 13.1 83 1.7 CALM 0 0 0 0 1021.4 1020.8 3.2
23/09:00pm 17.2 16.2 13.3 78 2.3 E 11 13 6 7 1021.2 1020.6 3.2
23/08:30pm 17.9 16.1 13.4 75 2.6 E 15 20 8 11 1021.2 1020.6 3.2

Latest Capital City Observations: Canberra | Sydney | Melbourne | Brisbane | Adelaide | Perth | Hobart | Darwin

Other Formats:

Comma delimited format used in spreadsheet applications
http://www.bom.gov.au/fwo/IDN60903/IDN60903.95716.axf

JavaScript Object Notation format (JSON) in row-major order
http://www.bom.gov.au/fwo/IDN60903/IDN60903.95716.json